Time;durP1;ratioP1;P1;durP2;ratioP2;P2;SDS_P1;SDS_P2;PMS_P1;PMS_P2;Temp;Humidity;BMP_temperature;BMP_pressure;BME280_temperature;BME280_humidity;BME280_pressure;Samples;Min_cycle;Max_cycle;Signal;HPM_P1;HPM_P2
2022/10/12 00:00:18;;;;;;;27.95;10.32;;;;;;;;;;4968729;28;20038;-68
2022/10/12 00:02:47;;;;;;;26.48;10.52;;;;;;;;;;4951055;28;20136;-68
2022/10/12 00:05:31;;;;;;;25.63;9.63;;;;;;;;;;4935305;28;20417;-68
2022/10/12 00:08:03;;;;;;;25.15;9.10;;;;;;;;;;4937869;28;20040;-67
2022/10/12 00:10:31;;;;;;;24.35;8.82;;;;;;;;;;4932696;28;20565;-68
2022/10/12 00:13:12;;;;;;;24.90;9.07;;;;;;;;;;4934579;28;20038;-68
2022/10/12 00:15:42;;;;;;;23.73;8.43;;;;;;;;;;4963903;28;20076;-68
2022/10/12 00:18:20;;;;;;;29.25;9.93;;;;;;;;;;4960331;28;20137;-67
2022/10/12 00:20:48;;;;;;;26.88;9.05;;;;;;;;;;4914196;28;20038;-68
2022/10/12 00:23:24;;;;;;;24.27;10.18;;;;;;;;;;4961824;28;20041;-68
2022/10/12 00:25:58;;;;;;;22.00;9.27;;;;;;;;;;4947250;28;22258;-67
2022/10/12 00:28:24;;;;;;;26.40;9.30;;;;;;;;;;4927059;28;20029;-68
2022/10/12 00:30:49;;;;;;;23.20;9.10;;;;;;;;;;4972893;28;22550;-68
2022/10/12 00:33:18;;;;;;;31.83;9.63;;;;;;;;;;4974050;28;20911;-67
2022/10/12 00:35:46;;;;;;;22.50;9.02;;;;;;;;;;4953281;28;20157;-68
2022/10/12 00:38:16;;;;;;;21.48;8.60;;;;;;;;;;4963908;28;20121;-68
2022/10/12 00:40:44;;;;;;;29.67;9.30;;;;;;;;;;4965545;28;20041;-68
2022/10/12 00:43:33;;;;;;;26.20;9.57;;;;;;;;;;4961937;28;22348;-67
2022/10/12 00:46:02;;;;;;;31.40;10.30;;;;;;;;;;4952484;28;20091;-68
2022/10/12 00:48:32;;;;;;;32.00;10.60;;;;;;;;;;4953212;28;20994;-68
2022/10/12 00:51:01;;;;;;;34.63;11.45;;;;;;;;;;4957574;28;20068;-68
2022/10/12 00:53:31;;;;;;;25.83;10.25;;;;;;;;;;4934224;28;20022;-67
2022/10/12 00:56:01;;;;;;;29.80;10.50;;;;;;;;;;4983611;28;20149;-68
2022/10/12 00:58:36;;;;;;;33.90;10.93;;;;;;;;;;4969609;28;20208;-68
2022/10/12 01:01:06;;;;;;;30.65;11.07;;;;;;;;;;4959482;28;20041;-68
2022/10/12 01:03:35;;;;;;;35.65;11.55;;;;;;;;;;4962368;28;20037;-67
2022/10/12 01:06:02;;;;;;;35.10;10.82;;;;;;;;;;4966746;28;20057;-68
2022/10/12 01:08:36;;;;;;;29.95;10.68;;;;;;;;;;4934515;28;20040;-68
2022/10/12 01:11:10;;;;;;;39.05;12.43;;;;;;;;;;4938666;28;20037;-68
2022/10/12 01:13:42;;;;;;;45.88;14.40;;;;;;;;;;4969329;28;20037;-67
2022/10/12 01:16:18;;;;;;;38.65;13.90;;;;;;;;;;4957646;28;20034;-68
2022/10/12 01:18:59;;;;;;;39.83;13.25;;;;;;;;;;4936446;28;20061;-68
2022/10/12 01:21:25;;;;;;;40.45;13.70;;;;;;;;;;4961841;28;20091;-68
2022/10/12 01:24:02;;;;;;;46.30;16.02;;;;;;;;;;4963426;28;20072;-67
2022/10/12 01:26:36;;;;;;;49.55;16.48;;;;;;;;;;4978821;28;20044;-68
2022/10/12 01:29:07;;;;;;;42.75;15.55;;;;;;;;;;4967273;28;20115;-68
2022/10/12 01:31:56;;;;;;;45.15;15.70;;;;;;;;;;4966884;28;20038;-67
2022/10/12 01:34:44;;;;;;;37.47;13.23;;;;;;;;;;4953444;28;20052;-68
2022/10/12 01:37:14;;;;;;;33.80;12.63;;;;;;;;;;4978090;28;20029;-67
2022/10/12 01:39:45;;;;;;;36.13;12.77;;;;;;;;;;4968417;28;20554;-68
2022/10/12 01:42:23;;;;;;;35.30;13.57;;;;;;;;;;4968631;28;20037;-68
2022/10/12 01:44:48;;;;;;;28.73;12.60;;;;;;;;;;4960754;28;20718;-68
2022/10/12 01:47:14;;;;;;;39.88;13.30;;;;;;;;;;4965610;28;20041;-68
2022/10/12 01:49:48;;;;;;;36.58;14.30;;;;;;;;;;4941250;28;20148;-67
2022/10/12 01:52:27;;;;;;;35.00;14.35;;;;;;;;;;4924934;28;20084;-68
2022/10/12 01:55:07;;;;;;;36.10;14.38;;;;;;;;;;4960323;28;20030;-67
2022/10/12 01:57:46;;;;;;;29.98;13.82;;;;;;;;;;4941332;28;20053;-68
2022/10/12 02:00:13;;;;;;;37.75;14.57;;;;;;;;;;4930637;28;20053;-67
2022/10/12 02:03:00;;;;;;;30.27;14.35;;;;;;;;;;4942557;28;20053;-68
2022/10/12 02:05:34;;;;;;;29.52;14.00;;;;;;;;;;4963572;28;20046;-68
2022/10/12 02:08:23;;;;;;;36.53;15.65;;;;;;;;;;4968224;28;20037;-68
2022/10/12 02:10:58;;;;;;;38.50;16.33;;;;;;;;;;4950899;28;20112;-68
2022/10/12 02:13:31;;;;;;;39.80;14.30;;;;;;;;;;4950905;28;20046;-68
2022/10/12 02:16:07;;;;;;;28.70;14.30;;;;;;;;;;4949077;28;20034;-68
2022/10/12 02:18:48;;;;;;;32.17;13.80;;;;;;;;;;4937519;28;22468;-68
2022/10/12 02:21:29;;;;;;;27.95;12.68;;;;;;;;;;4920810;28;20148;-68
2022/10/12 02:24:04;;;;;;;27.30;11.85;;;;;;;;;;4952865;28;20052;-68
2022/10/12 02:26:34;;;;;;;27.10;11.05;;;;;;;;;;4946343;28;20043;-68
2022/10/12 02:29:17;;;;;;;30.80;10.80;;;;;;;;;;4927363;28;20148;-67
2022/10/12 02:31:49;;;;;;;29.08;10.95;;;;;;;;;;4906498;28;20039;-68
2022/10/12 02:34:15;;;;;;;31.02;10.70;;;;;;;;;;4919678;28;20041;-68
2022/10/12 02:37:02;;;;;;;24.40;10.20;;;;;;;;;;4940920;28;20076;-68
2022/10/12 02:39:42;;;;;;;21.58;9.43;;;;;;;;;;4906982;28;20804;-74
2022/10/12 02:42:11;;;;;;;26.98;10.25;;;;;;;;;;4938021;28;20117;-75
2022/10/12 02:44:38;;;;;;;31.25;10.40;;;;;;;;;;4965548;28;20116;-74
2022/10/12 02:47:09;;;;;;;26.48;10.60;;;;;;;;;;4960087;28;20034;-74
2022/10/12 02:49:45;;;;;;;24.55;10.07;;;;;;;;;;4905870;28;20933;-73
2022/10/12 02:52:16;;;;;;;24.38;10.18;;;;;;;;;;4949117;28;20547;-74
2022/10/12 02:55:04;;;;;;;;;;;;;;;;;;;;;
2022/10/12 02:57:41;;;;;;;21.15;9.70;;;;;;;;;;4936455;28;20049;-74
2022/10/12 03:00:19;;;;;;;27.13;9.13;;;;;;;;;;4907005;28;20120;-74
2022/10/12 03:02:48;;;;;;;24.63;8.23;;;;;;;;;;4915113;28;21374;-74
2022/10/12 03:05:19;;;;;;;24.77;7.97;;;;;;;;;;4953095;28;20053;-74
2022/10/12 03:07:47;;;;;;;23.38;7.90;;;;;;;;;;4924794;28;20952;-74
2022/10/12 03:10:41;;;;;;;22.77;7.30;;;;;;;;;;4884347;28;20044;-74
2022/10/12 03:13:19;;;;;;;21.83;6.60;;;;;;;;;;4881001;28;20138;-74
2022/10/12 03:15:47;;;;;;;31.17;7.87;;;;;;;;;;4879427;28;22331;-74
2022/10/12 03:18:19;;;;;;;21.10;6.57;;;;;;;;;;4853933;28;20173;-74
2022/10/12 03:20:59;;;;;;;21.48;6.72;;;;;;;;;;4847156;28;20109;-74
2022/10/12 03:23:37;;;;;;;18.48;6.93;;;;;;;;;;4880185;28;20050;-74
2022/10/12 03:26:12;;;;;;;27.38;8.70;;;;;;;;;;4907279;28;20031;-74
2022/10/12 03:28:43;;;;;;;28.02;11.75;;;;;;;;;;4910717;28;20037;-74
2022/10/12 03:31:12;;;;;;;26.38;10.80;;;;;;;;;;4921284;28;20140;-74
2022/10/12 03:33:49;;;;;;;30.10;11.25;;;;;;;;;;4892074;28;20097;-75
2022/10/12 03:36:21;;;;;;;23.55;10.40;;;;;;;;;;4869486;28;20226;-74
2022/10/12 03:38:49;;;;;;;29.73;10.10;;;;;;;;;;4861145;28;20039;-74
2022/10/12 03:41:17;;;;;;;26.15;10.77;;;;;;;;;;4895640;28;20101;-74
2022/10/12 03:43:48;;;;;;;36.35;12.77;;;;;;;;;;4927684;28;20033;-74
2022/10/12 03:46:16;;;;;;;31.90;13.90;;;;;;;;;;4944655;28;20037;-74
2022/10/12 03:48:45;;;;;;;29.23;13.35;;;;;;;;;;4917099;28;20071;-74
2022/10/12 03:51:19;;;;;;;40.45;15.38;;;;;;;;;;4959113;28;20041;-74
2022/10/12 03:53:53;;;;;;;35.42;15.05;;;;;;;;;;4975510;28;20056;-74
2022/10/12 03:56:42;;;;;;;33.03;17.80;;;;;;;;;;4956196;28;20129;-74
2022/10/12 03:59:17;;;;;;;36.70;17.57;;;;;;;;;;4955370;28;20033;-74
2022/10/12 04:01:45;;;;;;;35.05;17.40;;;;;;;;;;4965591;28;20038;-74
2022/10/12 04:04:17;;;;;;;44.05;18.00;;;;;;;;;;4949664;28;20777;-74
2022/10/12 04:06:42;;;;;;;39.45;18.08;;;;;;;;;;4944446;28;20041;-74
2022/10/12 04:09:08;;;;;;;33.47;15.93;;;;;;;;;;4965460;28;20037;-74
2022/10/12 04:11:39;;;;;;;41.28;17.13;;;;;;;;;;4943325;28;20287;-74
2022/10/12 04:14:11;;;;;;;35.60;16.20;;;;;;;;;;4960069;28;20210;-74
2022/10/12 04:16:40;;;;;;;36.80;15.43;;;;;;;;;;4965911;28;20060;-74
2022/10/12 04:19:14;;;;;;;34.22;14.07;;;;;;;;;;4937220;28;20054;-74
2022/10/12 04:21:40;;;;;;;39.75;15.63;;;;;;;;;;4939651;28;20053;-74
2022/10/12 04:24:09;;;;;;;37.63;15.18;;;;;;;;;;4914053;28;20140;-74
2022/10/12 04:26:37;;;;;;;32.35;14.52;;;;;;;;;;4945380;28;20044;-74
2022/10/12 04:29:06;;;;;;;31.17;14.85;;;;;;;;;;4942236;28;20103;-74
2022/10/12 04:31:42;;;;;;;33.03;15.10;;;;;;;;;;4957043;28;20053;-74
2022/10/12 04:34:13;;;;;;;32.55;15.93;;;;;;;;;;4935246;28;20171;-74
2022/10/12 04:36:47;;;;;;;32.78;15.18;;;;;;;;;;4936849;28;20585;-74
2022/10/12 04:39:24;;;;;;;36.17;16.30;;;;;;;;;;4953972;28;20072;-74
2022/10/12 04:42:28;;;;;;;36.63;16.52;;;;;;;;;;4892501;28;20119;-74
2022/10/12 04:45:08;;;;;;;30.88;15.52;;;;;;;;;;4899780;28;22303;-74
2022/10/12 04:47:45;;;;;;;37.30;15.05;;;;;;;;;;4915967;28;20207;-74
2022/10/12 04:50:16;;;;;;;29.33;15.45;;;;;;;;;;4906007;28;20068;-74
2022/10/12 04:52:47;;;;;;;34.08;14.63;;;;;;;;;;4910870;28;20037;-74
2022/10/12 04:55:22;;;;;;;29.17;13.57;;;;;;;;;;4949767;28;20124;-74
2022/10/12 04:58:12;;;;;;;37.20;15.02;;;;;;;;;;4951888;28;20077;-75
2022/10/12 05:00:45;;;;;;;41.42;17.00;;;;;;;;;;4919503;28;21333;-74
2022/10/12 05:03:15;;;;;;;44.72;17.48;;;;;;;;;;4875935;28;20042;-75
2022/10/12 05:05:46;;;;;;;43.60;16.83;;;;;;;;;;4890532;28;20078;-74
2022/10/12 05:08:21;;;;;;;37.67;16.70;;;;;;;;;;4903967;28;20046;-74
2022/10/12 05:11:02;;;;;;;44.83;18.67;;;;;;;;;;4873506;28;20038;-74
2022/10/12 05:13:34;;;;;;;39.40;17.70;;;;;;;;;;4887548;28;20147;-74
2022/10/12 05:16:13;;;;;;;39.78;18.88;;;;;;;;;;4891867;28;20034;-74
2022/10/12 05:19:03;;;;;;;44.60;17.80;;;;;;;;;;4879547;28;20038;-74
2022/10/12 05:21:53;;;;;;;42.97;18.60;;;;;;;;;;4902292;28;20126;-73
2022/10/12 05:24:39;;;;;;;44.10;18.95;;;;;;;;;;4847808;28;20089;-74
2022/10/12 05:27:13;;;;;;;39.08;18.73;;;;;;;;;;4930502;28;20034;-72
2022/10/12 05:29:45;;;;;;;40.80;18.07;;;;;;;;;;4952164;28;20204;-73
2022/10/12 05:32:22;;;;;;;43.63;19.30;;;;;;;;;;4933872;28;20075;-72
2022/10/12 05:34:58;;;;;;;43.17;18.98;;;;;;;;;;4958618;28;20040;-70
2022/10/12 05:37:34;;;;;;;41.65;17.75;;;;;;;;;;4949369;28;20053;-72
2022/10/12 05:40:26;;;;;;;44.25;17.58;;;;;;;;;;4907490;28;20971;-72
2022/10/12 05:42:59;;;;;;;40.67;17.23;;;;;;;;;;4931502;28;20043;-72
2022/10/12 05:45:47;;;;;;;43.40;17.42;;;;;;;;;;4907039;28;20072;-73
2022/10/12 05:48:32;;;;;;;43.95;18.02;;;;;;;;;;4940087;28;20033;-73
2022/10/12 05:51:04;;;;;;;37.25;16.20;;;;;;;;;;4912842;28;20616;-66
2022/10/12 05:53:44;;;;;;;38.53;16.75;;;;;;;;;;4911198;28;20743;-66
2022/10/12 05:56:13;;;;;;;42.92;16.83;;;;;;;;;;4915186;28;20038;-66
2022/10/12 05:58:43;;;;;;;37.22;15.40;;;;;;;;;;4891837;28;20036;-66
2022/10/12 06:01:35;;;;;;;39.10;16.20;;;;;;;;;;4893903;28;20164;-66
2022/10/12 06:04:05;;;;;;;43.10;15.98;;;;;;;;;;4907803;28;20049;-66
2022/10/12 06:06:40;;;;;;;41.33;16.70;;;;;;;;;;4912378;28;20033;-66
2022/10/12 06:09:28;;;;;;;35.15;15.70;;;;;;;;;;4912486;28;20819;-66
2022/10/12 06:12:28;;;;;;;36.10;14.85;;;;;;;;;;4904170;28;20033;-66
2022/10/12 06:15:14;;;;;;;30.30;15.52;;;;;;;;;;4957120;28;20113;-66
2022/10/12 06:17:58;;;;;;;40.40;16.48;;;;;;;;;;4970910;28;20060;-66
2022/10/12 06:20:29;;;;;;;40.53;18.42;;;;;;;;;;4951704;28;20037;-65
2022/10/12 06:23:01;;;;;;;42.15;18.95;;;;;;;;;;4906666;28;20584;-66
2022/10/12 06:25:35;;;;;;;39.83;18.63;;;;;;;;;;4949864;28;20426;-66
2022/10/12 06:28:14;;;;;;;37.90;16.60;;;;;;;;;;4968101;28;20124;-66
2022/10/12 06:30:43;;;;;;;47.22;16.73;;;;;;;;;;4898341;28;20038;-66
2022/10/12 06:33:08;;;;;;;50.20;18.00;;;;;;;;;;4925840;28;20615;-66
2022/10/12 06:35:37;;;;;;;36.22;16.95;;;;;;;;;;4944284;28;20051;-66
2022/10/12 06:38:13;;;;;;;41.15;16.67;;;;;;;;;;4944259;28;22353;-66
2022/10/12 06:40:47;;;;;;;38.60;16.05;;;;;;;;;;4973058;28;20037;-66
2022/10/12 06:43:13;;;;;;;39.45;16.48;;;;;;;;;;4960014;28;20155;-66
2022/10/12 06:45:39;;;;;;;37.78;17.13;;;;;;;;;;4942746;28;20045;-66
2022/10/12 06:48:05;;;;;;;32.70;16.75;;;;;;;;;;4954291;28;20186;-66
2022/10/12 06:50:35;;;;;;;44.78;17.77;;;;;;;;;;4973962;28;20082;-65
2022/10/12 06:53:10;;;;;;;39.45;17.23;;;;;;;;;;4942072;28;20083;-65
2022/10/12 06:55:45;;;;;;;46.53;18.60;;;;;;;;;;4927465;28;20145;-66
2022/10/12 06:58:25;;;;;;;44.58;19.23;;;;;;;;;;4961354;28;20089;-65
2022/10/12 07:00:57;;;;;;;54.55;20.55;;;;;;;;;;4946078;28;21152;-66
2022/10/12 07:03:34;;;;;;;50.00;22.77;;;;;;;;;;4908541;28;20037;-65
2022/10/12 07:06:09;;;;;;;48.85;22.02;;;;;;;;;;4927866;28;20053;-66
2022/10/12 07:08:43;;;;;;;47.75;22.30;;;;;;;;;;4914580;28;20586;-65
2022/10/12 07:11:20;;;;;;;54.85;21.77;;;;;;;;;;4939824;28;20244;-66
2022/10/12 07:13:45;;;;;;;48.83;23.20;;;;;;;;;;4922385;28;20080;-66
2022/10/12 07:16:23;;;;;;;46.17;18.58;;;;;;;;;;4932421;28;20482;-66
2022/10/12 07:18:57;;;;;;;38.03;16.73;;;;;;;;;;4914513;28;20037;-66
2022/10/12 07:21:46;;;;;;;38.20;15.68;;;;;;;;;;4920822;28;20043;-67
2022/10/12 07:24:21;;;;;;;39.13;15.38;;;;;;;;;;4953030;28;20425;-66
2022/10/12 07:27:08;;;;;;;39.38;14.93;;;;;;;;;;4961004;28;20052;-66
2022/10/12 07:29:34;;;;;;;28.85;11.65;;;;;;;;;;4946093;28;20434;-66
2022/10/12 07:32:06;;;;;;;32.20;12.07;;;;;;;;;;4939867;28;20194;-66
2022/10/12 07:35:01;;;;;;;21.95;10.15;;;;;;;;;;4953045;28;20268;-66
2022/10/12 07:37:42;;;;;;;25.27;9.57;;;;;;;;;;4938783;28;20121;-66
2022/10/12 07:40:08;;;;;;;29.33;9.70;;;;;;;;;;4957926;28;20057;-66
2022/10/12 07:42:33;;;;;;;24.30;9.20;;;;;;;;;;4968501;28;20151;-66
2022/10/12 07:45:04;;;;;;;21.65;7.82;;;;;;;;;;4968236;28;20056;-66
2022/10/12 07:47:38;;;;;;;24.70;8.73;;;;;;;;;;4939707;28;20042;-66
2022/10/12 07:50:15;;;;;;;21.02;7.13;;;;;;;;;;4925256;28;20098;-66
2022/10/12 07:52:44;;;;;;;21.48;7.63;;;;;;;;;;4945850;28;20278;-69
2022/10/12 07:55:18;;;;;;;24.30;8.30;;;;;;;;;;4908341;28;20041;-66
2022/10/12 07:57:44;;;;;;;26.70;8.57;;;;;;;;;;4926769;28;20049;-68
2022/10/12 08:00:12;;;;;;;30.67;8.85;;;;;;;;;;4945901;28;20068;-66
2022/10/12 08:02:38;;;;;;;28.90;9.82;;;;;;;;;;4956326;28;20044;-67
2022/10/12 08:05:13;;;;;;;29.05;8.75;;;;;;;;;;4966531;28;20537;-67
2022/10/12 08:07:40;;;;;;;27.55;8.10;;;;;;;;;;4956527;28;22010;-67
2022/10/12 08:10:25;;;;;;;32.17;8.90;;;;;;;;;;4947909;28;20136;-67
2022/10/12 08:12:56;;;;;;;22.27;7.43;;;;;;;;;;4930485;28;20033;-68
2022/10/12 08:15:27;;;;;;;27.17;7.82;;;;;;;;;;4944895;28;20049;-67
2022/10/12 08:17:59;;;;;;;21.77;7.30;;;;;;;;;;4908481;28;20080;-67
2022/10/12 08:20:33;;;;;;;19.58;6.55;;;;;;;;;;4935720;28;20041;-67
2022/10/12 08:23:02;;;;;;;17.80;5.95;;;;;;;;;;4933430;28;20975;-66
2022/10/12 08:25:27;;;;;;;19.63;5.80;;;;;;;;;;4955633;28;20096;-67
2022/10/12 08:27:53;;;;;;;21.48;6.00;;;;;;;;;;4973898;28;20076;-67
2022/10/12 08:30:19;;;;;;;20.60;5.40;;;;;;;;;;4947580;28;22440;-67
2022/10/12 08:32:44;;;;;;;20.55;6.57;;;;;;;;;;4966166;28;20462;-67
2022/10/12 08:35:10;;;;;;;20.35;6.32;;;;;;;;;;4969383;28;20033;-67
2022/10/12 08:37:35;;;;;;;23.70;7.25;;;;;;;;;;4961672;28;20045;-67
2022/10/12 08:40:07;;;;;;;22.77;6.80;;;;;;;;;;4967140;28;20037;-67
2022/10/12 08:42:43;;;;;;;21.20;6.57;;;;;;;;;;4942149;28;20144;-67
2022/10/12 08:45:20;;;;;;;19.52;5.72;;;;;;;;;;4976914;28;20046;-69
2022/10/12 08:47:57;;;;;;;19.33;5.35;;;;;;;;;;4941709;28;20048;-66
2022/10/12 08:50:43;;;;;;;12.20;4.47;;;;;;;;;;4935306;28;20182;-66
2022/10/12 08:53:53;;;;;;;14.77;4.80;;;;;;;;;;4924909;28;20518;-67
2022/10/12 08:56:31;;;;;;;21.40;5.50;;;;;;;;;;4915337;28;20092;-67
2022/10/12 08:59:08;;;;;;;17.50;4.90;;;;;;;;;;4897280;28;20038;-66
2022/10/12 09:01:51;;;;;;;19.30;5.22;;;;;;;;;;4922558;28;20084;-67
2022/10/12 09:04:34;;;;;;;17.65;4.97;;;;;;;;;;4963132;28;20057;-67
2022/10/12 09:07:06;;;;;;;14.45;4.85;;;;;;;;;;4927504;28;20158;-67
2022/10/12 09:09:42;;;;;;;22.95;6.35;;;;;;;;;;4952734;28;20037;-69
2022/10/12 09:12:22;;;;;;;19.35;5.82;;;;;;;;;;4975238;28;20042;-69
2022/10/12 09:14:50;;;;;;;20.58;6.07;;;;;;;;;;4963612;28;20048;-72
2022/10/12 09:17:27;;;;;;;18.50;5.47;;;;;;;;;;4967135;28;20670;-71
2022/10/12 09:19:59;;;;;;;24.00;6.95;;;;;;;;;;4962208;28;20201;-69
2022/10/12 09:22:26;;;;;;;19.40;5.93;;;;;;;;;;4969522;28;20035;-69
2022/10/12 09:24:51;;;;;;;20.98;6.65;;;;;;;;;;4965516;28;20073;-70
2022/10/12 09:27:18;;;;;;;20.02;6.28;;;;;;;;;;4958416;28;20103;-69
2022/10/12 09:29:49;;;;;;;23.73;6.65;;;;;;;;;;4968902;28;22297;-70
2022/10/12 09:32:37;;;;;;;32.78;9.18;;;;;;;;;;4969555;28;20088;-69
2022/10/12 09:35:04;;;;;;;22.48;6.63;;;;;;;;;;4944488;28;20033;-70
2022/10/12 09:37:34;;;;;;;19.88;5.47;;;;;;;;;;4968849;28;20030;-70
2022/10/12 09:39:59;;;;;;;22.33;5.97;;;;;;;;;;4960830;28;20072;-70
2022/10/12 09:42:30;;;;;;;22.50;6.28;;;;;;;;;;4959467;28;20038;-70
2022/10/12 09:45:00;;;;;;;29.55;7.53;;;;;;;;;;4949805;28;20416;-70
2022/10/12 09:47:34;;;;;;;24.80;7.47;;;;;;;;;;4934189;28;20115;-70
2022/10/12 09:50:07;;;;;;;27.15;7.07;;;;;;;;;;4966569;28;20975;-70
2022/10/12 09:52:35;;;;;;;21.92;7.30;;;;;;;;;;4952053;28;20406;-70
2022/10/12 09:55:21;;;;;;;24.77;5.95;;;;;;;;;;4908429;28;20045;-71
2022/10/12 09:58:09;;;;;;;16.00;4.60;;;;;;;;;;4948438;28;20045;-76
2022/10/12 10:00:35;;;;;;;13.57;4.32;;;;;;;;;;4942403;28;20985;-75
2022/10/12 10:03:03;;;;;;;14.85;4.20;;;;;;;;;;4957170;28;20057;-71
2022/10/12 10:05:40;;;;;;;16.48;5.10;;;;;;;;;;4965625;28;20121;-70
2022/10/12 10:08:29;;;;;;;13.80;4.20;;;;;;;;;;4953897;28;20144;-70
2022/10/12 10:11:04;;;;;;;12.80;4.60;;;;;;;;;;4898614;28;20132;-69
2022/10/12 10:13:44;;;;;;;17.80;4.28;;;;;;;;;;4943106;28;20037;-69
2022/10/12 10:16:15;;;;;;;15.80;4.00;;;;;;;;;;4940872;28;20044;-70
2022/10/12 10:18:51;;;;;;;13.65;3.85;;;;;;;;;;4937680;28;20255;-69
2022/10/12 10:21:37;;;;;;;15.30;3.78;;;;;;;;;;4946863;28;20037;-70
2022/10/12 10:24:04;;;;;;;17.58;4.32;;;;;;;;;;4961941;28;20045;-69
2022/10/12 10:26:51;;;;;;;15.10;3.53;;;;;;;;;;4972112;28;20558;-71
2022/10/12 10:29:22;;;;;;;11.30;2.88;;;;;;;;;;4959321;28;20084;-70
2022/10/12 10:31:50;;;;;;;13.03;3.03;;;;;;;;;;4968609;28;20034;-73
2022/10/12 10:34:16;;;;;;;14.55;3.25;;;;;;;;;;4955269;28;20652;-74
2022/10/12 10:36:46;;;;;;;14.88;3.63;;;;;;;;;;4943386;28;20043;-70
2022/10/12 10:39:28;;;;;;;11.25;4.10;;;;;;;;;;4965717;28;20642;-70
2022/10/12 10:41:55;;;;;;;12.05;4.45;;;;;;;;;;4969806;28;20044;-70
2022/10/12 10:44:28;;;;;;;17.52;4.70;;;;;;;;;;4936161;28;20592;-70
2022/10/12 10:46:55;;;;;;;15.55;4.15;;;;;;;;;;4905694;28;20848;-69
2022/10/12 10:49:31;;;;;;;16.48;4.60;;;;;;;;;;4949567;28;20041;-72
2022/10/12 10:51:57;;;;;;;15.02;4.05;;;;;;;;;;4983335;28;20612;-69
2022/10/12 10:54:30;;;;;;;13.88;3.92;;;;;;;;;;4958500;28;20041;-67
2022/10/12 10:57:01;;;;;;;15.52;4.05;;;;;;;;;;4957682;28;20429;-67
2022/10/12 10:59:35;;;;;;;8.98;3.47;;;;;;;;;;4955115;28;20223;-67
2022/10/12 11:02:19;;;;;;;14.05;3.42;;;;;;;;;;4973992;28;20620;-68
2022/10/12 11:04:46;;;;;;;12.52;3.28;;;;;;;;;;4970317;28;20716;-67
2022/10/12 11:07:26;;;;;;;11.93;3.80;;;;;;;;;;4966921;28;20195;-67
2022/10/12 11:09:57;;;;;;;13.32;4.00;;;;;;;;;;4963837;28;20084;-68
2022/10/12 11:12:25;;;;;;;12.52;4.13;;;;;;;;;;4958032;28;20030;-67
2022/10/12 11:14:57;;;;;;;14.15;4.18;;;;;;;;;;4946967;28;20747;-68
2022/10/12 11:17:33;;;;;;;16.45;4.70;;;;;;;;;;4966142;28;20175;-67
2022/10/12 11:20:08;;;;;;;18.67;5.07;;;;;;;;;;4954852;28;20041;-68
2022/10/12 11:22:44;;;;;;;16.70;4.82;;;;;;;;;;4952201;28;20037;-68
2022/10/12 11:25:37;;;;;;;15.93;5.65;;;;;;;;;;4957142;28;20033;-67
2022/10/12 11:28:05;;;;;;;19.05;5.95;;;;;;;;;;4962407;28;20576;-67
2022/10/12 11:30:35;;;;;;;17.17;5.50;;;;;;;;;;4965814;28;20337;-67
2022/10/12 11:33:06;;;;;;;17.92;5.80;;;;;;;;;;4956387;28;20037;-68
2022/10/12 11:35:35;;;;;;;15.65;5.75;;;;;;;;;;4943020;28;20120;-67
2022/10/12 11:38:42;;;;;;;16.77;5.65;;;;;;;;;;4931705;28;21122;-68
2022/10/12 11:41:19;;;;;;;;;;;;;;;;;;4937102;28;20446;-68
2022/10/12 11:44:00;;;;;;;16.38;6.60;;;;;;;;;;4947735;28;19913;-68
2022/10/12 11:46:37;;;;;;;21.30;7.63;;;;;;;;;;4957569;28;20049;-68
2022/10/12 11:49:23;;;;;;;17.17;7.30;;;;;;;;;;4940192;28;20103;-68
2022/10/12 11:52:14;;;;;;;17.35;7.85;;;;;;;;;;4900471;28;20133;-67
2022/10/12 11:54:39;;;;;;;15.57;6.83;;;;;;;;;;4961639;28;20144;-69
2022/10/12 11:57:18;;;;;;;15.48;7.00;;;;;;;;;;4945831;28;20273;-69
2022/10/12 12:00:02;;;;;;;18.58;7.35;;;;;;;;;;4932597;28;20056;-68
2022/10/12 12:02:27;;;;;;;15.57;6.47;;;;;;;;;;4960087;28;20247;-68
2022/10/12 12:05:07;;;;;;;16.02;6.65;;;;;;;;;;4944754;28;20458;-68
2022/10/12 12:07:40;;;;;;;15.68;6.45;;;;;;;;;;4938356;28;20980;-68
2022/10/12 12:10:33;;;;;;;16.13;7.03;;;;;;;;;;4958396;28;20450;-67
2022/10/12 12:13:18;;;;;;;20.42;6.78;;;;;;;;;;4923273;28;20034;-68
2022/10/12 12:15:49;;;;;;;18.65;7.82;;;;;;;;;;4961415;28;20033;-67
2022/10/12 12:18:23;;;;;;;13.53;7.30;;;;;;;;;;4956546;28;20384;-68
2022/10/12 12:21:04;;;;;;;20.77;7.93;;;;;;;;;;4930388;28;20287;-67
2022/10/12 12:23:36;;;;;;;18.45;6.75;;;;;;;;;;4962039;28;20446;-68
2022/10/12 12:26:03;;;;;;;17.60;7.63;;;;;;;;;;4964442;28;20035;-67
2022/10/12 12:28:43;;;;;;;21.13;7.85;;;;;;;;;;4953395;28;20284;-67
2022/10/12 12:31:21;;;;;;;19.20;7.72;;;;;;;;;;4961096;28;20368;-67
2022/10/12 12:34:03;;;;;;;14.95;5.63;;;;;;;;;;4949074;28;20086;-67
2022/10/12 12:36:35;;;;;;;;;;;;;;;;;;4896255;28;20029;-66
2022/10/12 12:39:10;;;;;;;22.77;7.78;;;;;;;;;;4937749;28;20042;-67
2022/10/12 12:41:44;;;;;;;14.90;6.60;;;;;;;;;;4934963;28;20033;-67
2022/10/12 12:44:30;;;;;;;19.45;6.55;;;;;;;;;;4951152;28;20123;-67
2022/10/12 12:47:01;;;;;;;16.85;6.93;;;;;;;;;;4959096;28;20037;-67
2022/10/12 12:49:39;;;;;;;16.48;6.25;;;;;;;;;;4930021;28;20037;-67
2022/10/12 12:52:25;;;;;;;18.45;6.25;;;;;;;;;;4964150;28;20108;-67
2022/10/12 12:55:08;;;;;;;26.05;6.55;;;;;;;;;;4962307;28;20176;-67
2022/10/12 12:57:46;;;;;;;22.38;8.32;;;;;;;;;;4977706;28;20169;-67
2022/10/12 13:00:36;;;;;;;22.63;8.82;;;;;;;;;;4967818;28;20030;-67
2022/10/12 13:03:01;;;;;;;16.60;6.75;;;;;;;;;;4956839;28;20038;-66
2022/10/12 13:05:39;;;;;;;16.30;6.95;;;;;;;;;;4973650;28;20146;-67
2022/10/12 13:08:31;;;;;;;14.63;7.00;;;;;;;;;;4942985;28;20559;-67
2022/10/12 13:11:20;;;;;;;18.42;6.82;;;;;;;;;;4949762;28;20044;-67
2022/10/12 13:14:03;;;;;;;17.30;7.43;;;;;;;;;;4969657;28;20037;-67
2022/10/12 13:16:31;;;;;;;17.67;7.10;;;;;;;;;;4945816;28;20037;-67
2022/10/12 13:19:04;;;;;;;16.70;6.30;;;;;;;;;;4964426;28;20041;-67
2022/10/12 13:21:56;;;;;;;17.17;6.60;;;;;;;;;;4941792;28;20033;-67
2022/10/12 13:24:33;;;;;;;15.15;6.50;;;;;;;;;;4920117;28;20057;-67
2022/10/12 13:27:02;;;;;;;21.90;7.95;;;;;;;;;;4940383;28;22250;-67
2022/10/12 13:29:48;;;;;;;19.95;8.02;;;;;;;;;;4965446;28;20044;-67
2022/10/12 13:32:37;;;;;;;19.13;8.07;;;;;;;;;;4952070;28;20111;-67
2022/10/12 13:35:15;;;;;;;16.30;6.00;;;;;;;;;;4956805;28;20048;-67
2022/10/12 13:37:40;;;;;;;16.58;6.43;;;;;;;;;;4967315;28;20057;-67
2022/10/12 13:40:25;;;;;;;15.88;6.65;;;;;;;;;;4943795;28;20034;-67
2022/10/12 13:42:51;;;;;;;16.17;6.00;;;;;;;;;;4970282;28;20045;-67
2022/10/12 13:45:20;;;;;;;14.48;6.72;;;;;;;;;;4958328;28;20045;-67
2022/10/12 13:47:45;;;;;;;16.52;5.97;;;;;;;;;;4946013;28;20068;-67
2022/10/12 13:50:18;;;;;;;26.67;9.75;;;;;;;;;;4942573;28;22382;-67
2022/10/12 13:52:51;;;;;;;;;;;;;;;;;;4967051;28;20165;-67
2022/10/12 13:55:16;;;;;;;20.05;7.88;;;;;;;;;;4953984;28;20413;-67
2022/10/12 13:57:51;;;;;;;14.55;5.00;;;;;;;;;;4958159;28;20119;-67
2022/10/12 14:00:24;;;;;;;17.48;5.40;;;;;;;;;;4950692;28;20042;-67
2022/10/12 14:03:16;;;;;;;12.27;5.10;;;;;;;;;;4914723;28;20037;-67
2022/10/12 14:05:47;;;;;;;17.67;6.10;;;;;;;;;;4945156;28;20435;-67
2022/10/12 14:08:18;;;;;;;13.88;6.13;;;;;;;;;;4945506;28;20541;-67
2022/10/12 14:10:48;;;;;;;16.02;7.40;;;;;;;;;;4949366;28;20045;-67
2022/10/12 14:13:21;;;;;;;13.80;7.40;;;;;;;;;;4946798;28;20047;-67
2022/10/12 14:15:50;;;;;;;19.08;8.82;;;;;;;;;;4939454;28;20032;-67
2022/10/12 14:18:34;;;;;;;23.00;9.65;;;;;;;;;;4938173;28;20036;-67
2022/10/12 14:21:05;;;;;;;22.35;8.05;;;;;;;;;;4925242;28;20041;-67
2022/10/12 14:23:55;;;;;;;22.13;9.10;;;;;;;;;;4892558;28;20755;-66
2022/10/12 14:26:27;;;;;;;;;;;;;;;;;;4903040;28;20065;-67
2022/10/12 14:28:53;;;;;;;;;;;;;;;;;;4906795;28;19932;-67
2022/10/12 14:31:38;;;;;;;22.85;10.00;;;;;;;;;;4971806;28;25147;-66
2022/10/12 14:34:46;;;;;;;25.13;10.80;;;;;;;;;;4936159;28;20038;-67
2022/10/12 14:37:12;;;;;;;24.23;10.13;;;;;;;;;;4893146;28;20071;-66
2022/10/12 14:39:45;;;;;;;20.33;10.02;;;;;;;;;;4883784;28;20114;-66
2022/10/12 14:42:22;;;;;;;24.00;10.48;;;;;;;;;;4854834;29;20524;-67
2022/10/12 14:44:51;;;;;;;35.30;13.52;;;;;;;;;;4894264;28;20043;-66
2022/10/12 14:47:37;;;;;;;34.03;13.50;;;;;;;;;;4863388;28;20636;-67
2022/10/12 14:50:08;;;;;;;29.67;13.05;;;;;;;;;;4943405;28;20552;-67
2022/10/12 14:53:06;;;;;;;35.25;14.63;;;;;;;;;;4958274;28;20693;-67
2022/10/12 14:55:40;;;;;;;39.90;14.52;;;;;;;;;;4927334;28;20041;-66
2022/10/12 14:58:08;;;;;;;29.23;12.40;;;;;;;;;;4967391;28;20160;-66
2022/10/12 15:00:37;;;;;;;28.17;12.23;;;;;;;;;;4952929;28;20045;-67
2022/10/12 15:03:02;;;;;;;29.08;11.10;;;;;;;;;;4964356;28;20156;-66
2022/10/12 15:05:31;;;;;;;25.98;10.50;;;;;;;;;;4967056;28;20472;-67
2022/10/12 15:07:57;;;;;;;33.65;12.48;;;;;;;;;;4978364;28;20037;-67
2022/10/12 15:10:23;;;;;;;32.97;12.18;;;;;;;;;;4960837;28;20041;-67